Time;durP1;ratioP1;P1;durP2;ratioP2;P2;SDS_P1;SDS_P2;PMS_P1;PMS_P2;Temp;Humidity;BMP_temperature;BMP_pressure;BME280_temperature;BME280_humidity;BME280_pressure;Samples;Min_cycle;Max_cycle;Signal;HPM_P1;HPM_P2
2023/11/17 00:00:23;;;;;;;7.32;4.45;;;;;;;;;;5025225;28;20026;-76
2023/11/17 00:02:48;;;;;;;10.85;4.18;;;;;;;;;;5024342;28;20078;-76
2023/11/17 00:05:14;;;;;;;9.65;5.10;;;;;;;;;;5025318;28;20038;-76
2023/11/17 00:07:39;;;;;;;11.80;5.07;;;;;;;;;;5024020;28;20449;-76
2023/11/17 00:10:05;;;;;;;8.15;5.13;;;;;;;;;;5021619;28;20041;-76
2023/11/17 00:12:31;;;;;;;9.40;5.38;;;;;;;;;;5022947;28;20104;-76
2023/11/17 00:14:56;;;;;;;7.95;5.32;;;;;;;;;;5023292;28;20038;-75
2023/11/17 00:17:22;;;;;;;8.63;4.90;;;;;;;;;;5021550;28;20031;-76
2023/11/17 00:19:48;;;;;;;8.73;5.28;;;;;;;;;;5023211;28;20042;-76
2023/11/17 00:22:16;;;;;;;8.60;5.78;;;;;;;;;;5025773;28;20033;-76
2023/11/17 00:24:41;;;;;;;13.00;5.85;;;;;;;;;;5022954;28;20022;-76
2023/11/17 00:27:06;;;;;;;7.75;5.47;;;;;;;;;;5022215;28;20083;-76
2023/11/17 00:29:32;;;;;;;6.85;4.60;;;;;;;;;;5024690;28;20378;-75
2023/11/17 00:31:57;;;;;;;8.38;4.88;;;;;;;;;;5020736;28;20026;-76
2023/11/17 00:34:23;;;;;;;8.40;5.30;;;;;;;;;;5036255;28;20037;-76
2023/11/17 00:36:48;;;;;;;10.40;6.15;;;;;;;;;;5024221;28;20073;-75
2023/11/17 00:39:17;;;;;;;9.90;5.60;;;;;;;;;;5021999;28;20176;-76
2023/11/17 00:41:43;;;;;;;8.77;6.13;;;;;;;;;;5031366;28;20033;-75
2023/11/17 00:44:08;;;;;;;10.00;5.88;;;;;;;;;;5022969;28;20490;-75
2023/11/17 00:46:34;;;;;;;8.27;5.43;;;;;;;;;;5024858;28;20478;-76
2023/11/17 00:49:01;;;;;;;12.65;6.93;;;;;;;;;;5023295;28;20037;-76
2023/11/17 00:51:27;;;;;;;10.02;5.57;;;;;;;;;;5036800;28;20407;-75
2023/11/17 00:53:52;;;;;;;10.68;6.10;;;;;;;;;;5034678;28;20121;-76
2023/11/17 00:56:18;;;;;;;8.98;5.68;;;;;;;;;;5021958;28;20554;-76
2023/11/17 00:58:43;;;;;;;11.07;5.10;;;;;;;;;;5024733;28;20032;-76
2023/11/17 01:01:09;;;;;;;11.25;6.53;;;;;;;;;;5024619;28;20445;-76
2023/11/17 01:03:36;;;;;;;10.32;5.75;;;;;;;;;;5023631;28;20026;-76
2023/11/17 01:06:01;;;;;;;11.73;6.63;;;;;;;;;;5029961;28;20092;-76
2023/11/17 01:08:28;;;;;;;12.50;5.95;;;;;;;;;;5024239;28;20034;-75
2023/11/17 01:10:53;;;;;;;11.63;6.55;;;;;;;;;;5021515;28;20048;-75
2023/11/17 01:13:20;;;;;;;11.73;6.45;;;;;;;;;;5024277;28;20120;-76
2023/11/17 01:15:45;;;;;;;10.85;5.95;;;;;;;;;;5034690;28;20021;-76
2023/11/17 01:18:10;;;;;;;12.43;6.20;;;;;;;;;;5022248;28;20044;-75
2023/11/17 01:20:40;;;;;;;10.98;6.07;;;;;;;;;;5022395;28;20037;-76
2023/11/17 01:23:07;;;;;;;17.45;6.80;;;;;;;;;;5021787;28;20036;-76
2023/11/17 01:25:33;;;;;;;11.90;6.53;;;;;;;;;;5027179;28;20029;-76
2023/11/17 01:27:59;;;;;;;10.55;6.00;;;;;;;;;;5035436;28;20406;-75
2023/11/17 01:30:24;;;;;;;11.75;5.43;;;;;;;;;;5026915;28;20022;-76
2023/11/17 01:32:50;;;;;;;10.60;6.03;;;;;;;;;;5027292;28;20033;-76
2023/11/17 01:35:15;;;;;;;11.18;6.35;;;;;;;;;;5035593;28;20034;-76
2023/11/17 01:37:40;;;;;;;8.75;5.80;;;;;;;;;;5021675;28;20032;-76
2023/11/17 01:40:06;;;;;;;9.98;5.70;;;;;;;;;;5030686;28;20033;-76
2023/11/17 01:42:37;;;;;;;8.40;5.35;;;;;;;;;;5034608;28;20116;-76
2023/11/17 01:45:07;;;;;;;11.30;5.40;;;;;;;;;;5036578;28;20037;-76
2023/11/17 01:47:32;;;;;;;9.95;5.57;;;;;;;;;;5026344;28;20573;-76
2023/11/17 01:49:57;;;;;;;9.43;5.85;;;;;;;;;;5022466;28;20060;-76
2023/11/17 01:52:23;;;;;;;9.68;5.32;;;;;;;;;;5017844;28;20026;-75
2023/11/17 01:54:48;;;;;;;9.80;5.85;;;;;;;;;;5020995;28;20449;-76
2023/11/17 01:57:13;;;;;;;9.63;4.93;;;;;;;;;;5023338;28;20029;-76
2023/11/17 01:59:39;;;;;;;14.55;5.00;;;;;;;;;;5024923;28;20026;-76
2023/11/17 02:02:04;;;;;;;13.13;5.45;;;;;;;;;;5035771;28;20041;-76
2023/11/17 02:04:31;;;;;;;6.63;4.47;;;;;;;;;;5023094;28;20055;-76
2023/11/17 02:07:05;;;;;;;9.60;5.28;;;;;;;;;;5022009;28;20018;-76
2023/11/17 02:09:30;;;;;;;12.18;5.35;;;;;;;;;;5010736;28;20049;-77
2023/11/17 02:12:10;;;;;;;12.45;5.63;;;;;;;;;;5022863;28;20498;-76
2023/11/17 02:14:37;;;;;;;11.10;5.35;;;;;;;;;;5027315;28;20548;-76
2023/11/17 02:17:03;;;;;;;12.02;5.18;;;;;;;;;;5020126;28;20120;-76
2023/11/17 02:19:28;;;;;;;12.25;5.95;;;;;;;;;;5022127;28;20025;-77
2023/11/17 02:21:57;;;;;;;14.05;6.15;;;;;;;;;;5022594;28;20270;-76
2023/11/17 02:24:26;;;;;;;11.23;5.85;;;;;;;;;;5022448;28;20087;-77
2023/11/17 02:26:59;;;;;;;8.95;5.32;;;;;;;;;;5017374;28;20029;-75
2023/11/17 02:29:27;;;;;;;13.63;5.35;;;;;;;;;;5022953;28;20034;-76
2023/11/17 02:31:53;;;;;;;9.07;5.50;;;;;;;;;;5028347;28;20079;-76
2023/11/17 02:34:21;;;;;;;8.70;5.15;;;;;;;;;;5032692;28;20029;-76
2023/11/17 02:36:48;;;;;;;12.23;5.90;;;;;;;;;;5032383;28;20022;-76
2023/11/17 02:39:27;;;;;;;11.52;6.05;;;;;;;;;;5033956;28;20112;-77
2023/11/17 02:41:57;;;;;;;11.70;5.40;;;;;;;;;;5018027;28;20028;-76
2023/11/17 02:44:29;;;;;;;11.60;6.72;;;;;;;;;;5019783;28;20118;-76
2023/11/17 02:47:03;;;;;;;12.97;6.10;;;;;;;;;;5018546;28;20045;-76
2023/11/17 02:49:34;;;;;;;10.70;6.43;;;;;;;;;;5022032;28;20271;-76
2023/11/17 02:52:03;;;;;;;11.50;6.40;;;;;;;;;;5018310;28;20030;-76
2023/11/17 02:54:29;;;;;;;9.43;5.72;;;;;;;;;;5022823;28;20029;-76
2023/11/17 02:56:54;;;;;;;7.80;5.07;;;;;;;;;;5019740;28;20052;-76
2023/11/17 02:59:20;;;;;;;11.52;6.30;;;;;;;;;;5020807;28;20076;-75
2023/11/17 03:01:45;;;;;;;9.88;5.70;;;;;;;;;;5022710;28;20587;-77
2023/11/17 03:04:15;;;;;;;8.95;5.05;;;;;;;;;;5031285;28;20050;-76
2023/11/17 03:06:48;;;;;;;7.72;4.95;;;;;;;;;;5033273;28;20030;-76
2023/11/17 03:09:14;;;;;;;11.23;5.65;;;;;;;;;;5019594;28;20044;-76
2023/11/17 03:11:41;;;;;;;9.85;5.50;;;;;;;;;;5020725;28;20033;-75
2023/11/17 03:14:08;;;;;;;11.52;6.20;;;;;;;;;;5028024;28;20044;-76
2023/11/17 03:16:34;;;;;;;11.77;5.72;;;;;;;;;;5022449;28;20029;-76
2023/11/17 03:18:59;;;;;;;9.10;5.70;;;;;;;;;;5019411;28;20040;-76
2023/11/17 03:21:24;;;;;;;11.48;6.68;;;;;;;;;;5022018;28;20401;-76
2023/11/17 03:23:50;;;;;;;9.98;5.38;;;;;;;;;;5019498;28;20105;-76
2023/11/17 03:26:17;;;;;;;11.05;7.10;;;;;;;;;;5019342;28;20065;-76
2023/11/17 03:28:42;;;;;;;10.63;6.30;;;;;;;;;;5022751;28;20102;-75
2023/11/17 03:31:13;;;;;;;14.63;7.72;;;;;;;;;;5019784;28;20526;-76
2023/11/17 03:33:39;;;;;;;10.68;5.82;;;;;;;;;;5021332;28;20025;-76
2023/11/17 03:36:04;;;;;;;12.93;7.15;;;;;;;;;;5035594;28;20490;-76
2023/11/17 03:38:31;;;;;;;18.88;7.05;;;;;;;;;;5023808;28;20025;-76
2023/11/17 03:40:56;;;;;;;11.73;7.85;;;;;;;;;;5018465;28;20087;-75
2023/11/17 03:43:22;;;;;;;13.43;8.38;;;;;;;;;;5019708;28;20030;-76
2023/11/17 03:45:48;;;;;;;12.18;7.50;;;;;;;;;;5022414;28;20033;-76
2023/11/17 03:48:13;;;;;;;12.90;8.88;;;;;;;;;;5021207;28;20088;-76
2023/11/17 03:50:39;;;;;;;12.27;7.82;;;;;;;;;;5033455;28;20513;-76
2023/11/17 03:53:05;;;;;;;13.95;8.80;;;;;;;;;;5022033;28;20050;-76
2023/11/17 03:55:31;;;;;;;12.27;8.27;;;;;;;;;;5019100;28;20026;-75
2023/11/17 03:57:56;;;;;;;12.00;8.60;;;;;;;;;;5020002;28;20047;-76
2023/11/17 04:00:23;;;;;;;13.68;8.73;;;;;;;;;;5020320;28;20037;-76
2023/11/17 04:02:52;;;;;;;14.85;8.40;;;;;;;;;;5021206;28;20120;-76
2023/11/17 04:05:17;;;;;;;11.43;7.70;;;;;;;;;;5020907;28;20498;-76
2023/11/17 04:07:43;;;;;;;13.98;8.57;;;;;;;;;;5018933;28;20101;-76
2023/11/17 04:10:09;;;;;;;13.88;8.80;;;;;;;;;;5019180;28;20114;-77
2023/11/17 04:12:35;;;;;;;12.20;8.50;;;;;;;;;;5022610;28;20132;-76
2023/11/17 04:15:01;;;;;;;12.43;8.13;;;;;;;;;;5017054;28;20061;-75
2023/11/17 04:17:27;;;;;;;12.60;9.07;;;;;;;;;;5024898;28;20376;-76
2023/11/17 04:19:52;;;;;;;14.43;8.38;;;;;;;;;;5021758;28;20557;-76
2023/11/17 04:22:17;;;;;;;12.70;7.75;;;;;;;;;;5015810;28;20037;-76
2023/11/17 04:24:42;;;;;;;13.63;9.18;;;;;;;;;;5022130;28;20021;-76
2023/11/17 04:27:08;;;;;;;12.73;8.18;;;;;;;;;;5019138;28;20371;-76
2023/11/17 04:29:33;;;;;;;12.52;7.65;;;;;;;;;;5025321;28;20481;-75
2023/11/17 04:31:58;;;;;;;13.73;8.82;;;;;;;;;;5022958;28;20514;-76
2023/11/17 04:34:23;;;;;;;14.15;8.85;;;;;;;;;;5025723;28;20040;-76
2023/11/17 04:36:48;;;;;;;14.23;8.75;;;;;;;;;;5019603;28;20044;-76
2023/11/17 04:39:17;;;;;;;10.65;7.85;;;;;;;;;;5023083;28;20121;-76
2023/11/17 04:41:44;;;;;;;10.93;7.05;;;;;;;;;;5023718;28;20104;-76
2023/11/17 04:44:10;;;;;;;17.20;8.02;;;;;;;;;;5022770;28;20025;-76
2023/11/17 04:46:35;;;;;;;11.25;7.82;;;;;;;;;;5024271;28;20380;-76
2023/11/17 04:49:00;;;;;;;11.32;7.88;;;;;;;;;;5024902;28;20034;-76
2023/11/17 04:51:25;;;;;;;12.48;8.48;;;;;;;;;;5023864;28;20036;-77
2023/11/17 04:53:51;;;;;;;13.30;8.40;;;;;;;;;;5022012;28;20077;-76
2023/11/17 04:56:17;;;;;;;11.30;8.35;;;;;;;;;;5023419;28;20109;-77
2023/11/17 04:58:44;;;;;;;12.38;8.68;;;;;;;;;;5022928;28;20051;-77
2023/11/17 05:01:10;;;;;;;10.80;7.90;;;;;;;;;;5023880;28;20034;-76
2023/11/17 05:03:36;;;;;;;11.55;8.23;;;;;;;;;;5022254;28;20040;-76
2023/11/17 05:06:05;;;;;;;14.13;7.90;;;;;;;;;;5022570;28;20041;-76
2023/11/17 05:08:32;;;;;;;11.35;7.05;;;;;;;;;;5023829;28;20033;-76
2023/11/17 05:10:58;;;;;;;12.23;8.65;;;;;;;;;;5021667;28;20405;-76
2023/11/17 05:13:25;;;;;;;11.18;7.55;;;;;;;;;;5021377;28;20168;-76
2023/11/17 05:15:50;;;;;;;11.10;7.20;;;;;;;;;;5017887;28;20375;-76
2023/11/17 05:18:15;;;;;;;11.65;8.43;;;;;;;;;;5021869;28;20037;-76
2023/11/17 05:20:42;;;;;;;11.02;7.57;;;;;;;;;;5021281;28;20073;-75
2023/11/17 05:23:11;;;;;;;10.15;7.53;;;;;;;;;;5021688;28;20462;-76
2023/11/17 05:25:37;;;;;;;8.68;6.60;;;;;;;;;;5022959;28;20051;-77
2023/11/17 05:28:04;;;;;;;11.38;7.53;;;;;;;;;;5022265;28;20203;-76
2023/11/17 05:30:31;;;;;;;9.13;6.60;;;;;;;;;;5023749;28;20383;-76
2023/11/17 05:32:56;;;;;;;8.43;5.63;;;;;;;;;;5021159;28;20065;-76
2023/11/17 05:35:21;;;;;;;10.27;6.63;;;;;;;;;;5022597;28;20107;-76
2023/11/17 05:37:47;;;;;;;8.68;6.18;;;;;;;;;;5021480;28;20117;-76
2023/11/17 05:40:12;;;;;;;8.02;6.10;;;;;;;;;;5026142;28;20045;-76
2023/11/17 05:42:37;;;;;;;8.52;5.30;;;;;;;;;;5019668;28;20036;-76
2023/11/17 05:45:05;;;;;;;7.57;5.55;;;;;;;;;;5016083;28;20032;-76
2023/11/17 05:47:30;;;;;;;7.82;5.95;;;;;;;;;;5021888;28;20014;-76
2023/11/17 05:49:55;;;;;;;7.60;5.00;;;;;;;;;;5020669;28;20041;-76
2023/11/17 05:52:21;;;;;;;7.07;5.55;;;;;;;;;;5018591;28;20022;-76
2023/11/17 05:54:46;;;;;;;8.38;5.78;;;;;;;;;;5021629;28;20084;-78
2023/11/17 05:57:15;;;;;;;6.78;4.78;;;;;;;;;;5018805;28;20040;-76
2023/11/17 05:59:41;;;;;;;8.27;5.78;;;;;;;;;;5020202;28;20013;-76
2023/11/17 06:02:07;;;;;;;6.70;5.20;;;;;;;;;;5020635;28;20030;-76
2023/11/17 06:04:32;;;;;;;6.65;4.75;;;;;;;;;;5016743;28;20405;-76
2023/11/17 06:06:58;;;;;;;7.20;5.05;;;;;;;;;;5033868;28;20176;-76
2023/11/17 06:09:23;;;;;;;7.03;4.78;;;;;;;;;;5021451;28;20029;-76
2023/11/17 06:11:49;;;;;;;6.32;4.78;;;;;;;;;;5026711;28;20407;-76
2023/11/17 06:14:14;;;;;;;8.15;4.85;;;;;;;;;;5020509;28;20087;-76
2023/11/17 06:16:39;;;;;;;7.00;4.82;;;;;;;;;;5022936;28;20060;-76
2023/11/17 06:19:04;;;;;;;7.03;4.70;;;;;;;;;;5018547;28;20495;-76
2023/11/17 06:21:30;;;;;;;8.70;5.03;;;;;;;;;;5025733;28;20508;-76
2023/11/17 06:23:56;;;;;;;6.47;4.45;;;;;;;;;;5017852;28;20029;-76
2023/11/17 06:26:21;;;;;;;6.82;4.85;;;;;;;;;;5023752;28;20029;-76
2023/11/17 06:28:48;;;;;;;7.30;5.25;;;;;;;;;;5020429;28;20040;-76
2023/11/17 06:31:13;;;;;;;7.78;5.32;;;;;;;;;;5020254;28;20056;-76
2023/11/17 06:33:39;;;;;;;7.10;5.60;;;;;;;;;;5023197;28;20029;-76
2023/11/17 06:36:04;;;;;;;7.00;5.07;;;;;;;;;;5021494;28;20037;-76
2023/11/17 06:38:33;;;;;;;7.00;5.00;;;;;;;;;;5021434;28;20068;-76
2023/11/17 06:40:59;;;;;;;6.80;4.35;;;;;;;;;;5020584;28;20060;-76
2023/11/17 06:43:24;;;;;;;6.65;4.55;;;;;;;;;;5016848;28;20033;-76
2023/11/17 06:45:52;;;;;;;6.00;3.92;;;;;;;;;;5022087;28;20037;-76
2023/11/17 06:48:18;;;;;;;7.22;4.28;;;;;;;;;;5019496;28;20049;-76
2023/11/17 06:50:43;;;;;;;7.40;4.57;;;;;;;;;;5021547;28;20025;-76
2023/11/17 06:53:10;;;;;;;7.10;4.70;;;;;;;;;;5019965;28;20049;-76
2023/11/17 06:55:35;;;;;;;7.57;4.90;;;;;;;;;;5019457;28;20537;-76
2023/11/17 06:58:00;;;;;;;8.07;4.50;;;;;;;;;;5018792;28;20101;-76
2023/11/17 07:00:25;;;;;;;7.28;5.18;;;;;;;;;;5022232;28;20026;-76
2023/11/17 07:02:51;;;;;;;5.05;3.50;;;;;;;;;;5019964;28;20029;-76
2023/11/17 07:05:17;;;;;;;5.80;3.72;;;;;;;;;;5022238;28;20060;-76
2023/11/17 07:07:42;;;;;;;6.80;3.60;;;;;;;;;;5034567;28;20048;-76
2023/11/17 07:10:14;;;;;;;5.65;4.38;;;;;;;;;;5020559;28;20033;-76
2023/11/17 07:12:40;;;;;;;5.18;3.67;;;;;;;;;;5023261;28;20525;-76
2023/11/17 07:15:06;;;;;;;5.45;3.38;;;;;;;;;;5017972;28;20038;-76
2023/11/17 07:17:31;;;;;;;6.32;3.88;;;;;;;;;;5017490;28;20029;-76
2023/11/17 07:19:56;;;;;;;5.70;3.53;;;;;;;;;;5022154;28;20060;-76
2023/11/17 07:22:22;;;;;;;5.80;4.10;;;;;;;;;;5021438;28;20053;-76
2023/11/17 07:24:47;;;;;;;5.15;3.67;;;;;;;;;;5020018;28;20105;-76
2023/11/17 07:27:12;;;;;;;6.57;3.35;;;;;;;;;;5019587;28;20108;-76
2023/11/17 07:29:37;;;;;;;5.35;3.25;;;;;;;;;;5020334;28;20481;-76
2023/11/17 07:32:04;;;;;;;5.35;3.20;;;;;;;;;;5020910;28;20084;-76
2023/11/17 07:34:29;;;;;;;5.13;3.72;;;;;;;;;;5022737;28;20034;-76
2023/11/17 07:36:54;;;;;;;5.22;3.38;;;;;;;;;;5017801;28;20029;-77
2023/11/17 07:39:23;;;;;;;4.97;3.47;;;;;;;;;;5017139;28;20033;-76
2023/11/17 07:41:48;;;;;;;4.82;2.97;;;;;;;;;;5021646;28;20068;-76
2023/11/17 07:44:19;;;;;;;4.90;3.20;;;;;;;;;;5018183;28;20091;-76
2023/11/17 07:46:47;;;;;;;3.95;2.38;;;;;;;;;;5020537;28;20482;-76
2023/11/17 07:49:12;;;;;;;4.88;2.78;;;;;;;;;;5024566;28;20542;-76
2023/11/17 07:51:37;;;;;;;4.60;2.80;;;;;;;;;;5019113;28;20038;-76
2023/11/17 07:54:04;;;;;;;4.93;2.40;;;;;;;;;;5018560;28;20033;-76
2023/11/17 07:56:29;;;;;;;3.40;1.98;;;;;;;;;;5018756;28;20036;-76
2023/11/17 07:58:56;;;;;;;5.85;2.95;;;;;;;;;;5018837;28;20026;-76
2023/11/17 08:01:21;;;;;;;9.43;3.53;;;;;;;;;;5021065;28;20028;-76
2023/11/17 08:03:46;;;;;;;4.78;2.70;;;;;;;;;;5018261;28;20029;-76
2023/11/17 08:06:12;;;;;;;5.55;2.95;;;;;;;;;;5015716;28;20038;-76
2023/11/17 08:08:40;;;;;;;4.78;2.63;;;;;;;;;;5027200;28;20017;-76
2023/11/17 08:11:06;;;;;;;5.10;2.60;;;;;;;;;;5021801;28;20072;-76
2023/11/17 08:13:32;;;;;;;4.90;2.50;;;;;;;;;;5026306;28;20030;-76
2023/11/17 08:15:57;;;;;;;3.65;2.00;;;;;;;;;;5037028;28;20087;-76
2023/11/17 08:18:23;;;;;;;4.93;1.90;;;;;;;;;;5022748;28;20030;-76
2023/11/17 08:20:48;;;;;;;4.03;2.00;;;;;;;;;;5026075;28;20032;-76
2023/11/17 08:23:14;;;;;;;4.32;2.25;;;;;;;;;;5022811;28;20493;-76
2023/11/17 08:25:39;;;;;;;5.03;2.40;;;;;;;;;;5025747;28;20034;-76
2023/11/17 08:28:06;;;;;;;3.67;2.28;;;;;;;;;;5025720;28;20047;-76
2023/11/17 08:30:33;;;;;;;7.90;2.63;;;;;;;;;;5025528;28;20074;-76
2023/11/17 08:32:58;;;;;;;4.28;2.53;;;;;;;;;;5021075;28;20037;-76
2023/11/17 08:35:23;;;;;;;3.50;2.05;;;;;;;;;;5023571;28;20033;-76
2023/11/17 08:37:52;;;;;;;3.53;2.20;;;;;;;;;;5022828;28;20018;-76
2023/11/17 08:40:18;;;;;;;3.95;2.13;;;;;;;;;;5023216;28;20367;-76
2023/11/17 08:42:44;;;;;;;5.85;2.15;;;;;;;;;;5028619;28;20018;-77
2023/11/17 08:45:09;;;;;;;3.65;1.92;;;;;;;;;;5023360;28;20026;-76
2023/11/17 08:47:38;;;;;;;3.88;1.73;;;;;;;;;;5023057;28;20026;-76
2023/11/17 08:50:06;;;;;;;9.57;4.25;;;;;;;;;;5004699;28;20117;-77
2023/11/17 08:52:39;;;;;;;4.68;2.00;;;;;;;;;;5023332;28;20032;-77
2023/11/17 08:55:14;;;;;;;4.32;2.00;;;;;;;;;;5017510;28;20027;-77
2023/11/17 08:57:44;;;;;;;4.60;2.15;;;;;;;;;;5022980;28;20544;-77
2023/11/17 09:00:14;;;;;;;3.90;1.90;;;;;;;;;;5022067;28;20153;-77
2023/11/17 09:02:40;;;;;;;5.38;2.30;;;;;;;;;;5023669;28;20029;-77
2023/11/17 09:05:05;;;;;;;4.88;2.33;;;;;;;;;;5022060;28;20077;-76
2023/11/17 09:07:30;;;;;;;3.92;2.22;;;;;;;;;;5025149;28;20075;-77
2023/11/17 09:09:56;;;;;;;4.35;2.10;;;;;;;;;;5024266;28;20406;-76
2023/11/17 09:12:21;;;;;;;4.70;2.13;;;;;;;;;;5025063;28;20013;-76
2023/11/17 09:14:47;;;;;;;3.95;2.03;;;;;;;;;;5020615;28;20030;-77
2023/11/17 09:17:12;;;;;;;4.75;2.30;;;;;;;;;;5021556;28;20560;-77
2023/11/17 09:19:39;;;;;;;4.72;2.33;;;;;;;;;;5026324;28;20029;-76
2023/11/17 09:22:04;;;;;;;7.65;2.42;;;;;;;;;;5019417;28;20041;-76
2023/11/17 09:24:30;;;;;;;4.22;1.95;;;;;;;;;;5023440;28;20026;-77
2023/11/17 09:26:56;;;;;;;5.05;2.30;;;;;;;;;;5021605;28;20049;-77
2023/11/17 09:29:22;;;;;;;5.28;2.50;;;;;;;;;;5019202;28;20139;-76
2023/11/17 09:31:48;;;;;;;5.82;2.45;;;;;;;;;;5023093;28;20025;-76
2023/11/17 09:34:14;;;;;;;3.90;2.45;;;;;;;;;;5022481;28;20117;-76
2023/11/17 09:36:40;;;;;;;5.20;2.97;;;;;;;;;;5023633;28;20030;-76
2023/11/17 09:39:09;;;;;;;4.63;2.22;;;;;;;;;;5023734;28;20097;-76
2023/11/17 09:41:34;;;;;;;7.00;2.90;;;;;;;;;;5020574;28;20026;-76
2023/11/17 09:43:59;;;;;;;6.30;2.78;;;;;;;;;;5022785;28;20030;-76
2023/11/17 09:46:31;;;;;;;4.70;2.45;;;;;;;;;;5022557;28;20026;-76
2023/11/17 09:48:59;;;;;;;5.93;2.70;;;;;;;;;;5020744;28;20037;-76
2023/11/17 09:51:24;;;;;;;4.93;2.00;;;;;;;;;;5023902;28;20025;-76
2023/11/17 09:53:50;;;;;;;4.72;2.65;;;;;;;;;;5027071;28;20038;-75
2023/11/17 09:56:15;;;;;;;5.82;2.53;;;;;;;;;;5020521;28;20092;-76
2023/11/17 09:58:44;;;;;;;5.65;2.50;;;;;;;;;;5023626;28;20068;-76
2023/11/17 10:01:10;;;;;;;5.43;2.50;;;;;;;;;;5014546;28;20042;-76
2023/11/17 10:03:36;;;;;;;4.43;2.28;;;;;;;;;;5018855;28;20023;-76
2023/11/17 10:06:04;;;;;;;7.55;3.70;;;;;;;;;;5020606;28;20109;-76
2023/11/17 10:08:30;;;;;;;16.27;7.65;;;;;;;;;;5023027;28;20029;-76
2023/11/17 10:10:56;;;;;;;9.38;3.83;;;;;;;;;;5017690;28;20045;-76
2023/11/17 10:13:23;;;;;;;9.52;4.05;;;;;;;;;;5019512;28;20037;-76
2023/11/17 10:15:52;;;;;;;8.93;3.85;;;;;;;;;;5021934;28;20171;-76
2023/11/17 10:18:20;;;;;;;3.33;2.10;;;;;;;;;;5018613;28;20026;-76
2023/11/17 10:20:45;;;;;;;4.68;2.67;;;;;;;;;;5017649;28;20030;-76
2023/11/17 10:23:11;;;;;;;6.10;2.90;;;;;;;;;;5017920;28;20379;-76
2023/11/17 10:25:38;;;;;;;5.20;2.60;;;;;;;;;;5022447;28;20034;-76
2023/11/17 10:28:03;;;;;;;3.72;2.30;;;;;;;;;;5022349;28;20098;-76
2023/11/17 10:30:30;;;;;;;7.35;3.08;;;;;;;;;;5020842;28;20485;-76
2023/11/17 10:32:58;;;;;;;9.55;3.55;;;;;;;;;;5018894;28;20109;-76
2023/11/17 10:35:26;;;;;;;8.73;3.67;;;;;;;;;;5023294;28;20032;-76
2023/11/17 10:37:55;;;;;;;5.18;2.67;;;;;;;;;;5023585;28;20033;-76
2023/11/17 10:40:24;;;;;;;3.72;2.22;;;;;;;;;;5019739;28;20030;-76
2023/11/17 10:43:00;;;;;;;4.97;2.90;;;;;;;;;;5021132;28;20033;-76
2023/11/17 10:45:25;;;;;;;4.82;2.20;;;;;;;;;;5009811;28;20139;-76
2023/11/17 10:47:50;;;;;;;5.68;3.10;;;;;;;;;;5022592;28;20038;-76
2023/11/17 10:50:16;;;;;;;5.45;2.60;;;;;;;;;;5020049;28;20033;-76
2023/11/17 10:52:42;;;;;;;7.88;2.95;;;;;;;;;;5022421;28;20041;-76
2023/11/17 10:55:08;;;;;;;4.93;2.47;;;;;;;;;;5020028;28;20037;-76
2023/11/17 10:57:33;;;;;;;8.35;3.15;;;;;;;;;;5020514;28;20481;-76
2023/11/17 10:59:58;;;;;;;8.55;2.75;;;;;;;;;;5016070;28;20040;-77
2023/11/17 11:02:26;;;;;;;4.60;2.20;;;;;;;;;;5018391;28;20033;-77
2023/11/17 11:04:58;;;;;;;5.22;2.45;;;;;;;;;;5023677;28;20038;-77
2023/11/17 11:07:25;;;;;;;5.20;2.47;;;;;;;;;;5016319;28;20030;-76
2023/11/17 11:09:51;;;;;;;4.32;2.33;;;;;;;;;;5023657;28;20040;-75
2023/11/17 11:12:16;;;;;;;5.93;2.25;;;;;;;;;;5020508;28;20057;-76
2023/11/17 11:14:42;;;;;;;5.93;2.40;;;;;;;;;;5022538;28;20485;-77
2023/11/17 11:17:09;;;;;;;5.15;3.05;;;;;;;;;;5021122;28;20498;-77
2023/11/17 11:19:35;;;;;;;5.63;2.33;;;;;;;;;;5020252;28;20437;-76
2023/11/17 11:22:01;;;;;;;5.55;2.45;;;;;;;;;;5021594;28;20025;-77
2023/11/17 11:24:28;;;;;;;6.50;2.45;;;;;;;;;;5016900;28;20053;-76
2023/11/17 11:26:54;;;;;;;4.97;2.30;;;;;;;;;;5020817;28;20029;-76
2023/11/17 11:29:19;;;;;;;11.60;5.05;;;;;;;;;;5019625;28;20026;-76
2023/11/17 11:31:47;;;;;;;14.73;6.07;;;;;;;;;;5022763;28;20064;-77
2023/11/17 11:34:13;;;;;;;12.82;4.72;;;;;;;;;;5019212;28;20053;-76
2023/11/17 11:36:38;;;;;;;13.85;4.55;;;;;;;;;;5019792;28;20033;-76
2023/11/17 11:39:03;;;;;;;13.27;4.63;;;;;;;;;;5018907;28;20105;-76
2023/11/17 11:41:38;;;;;;;7.90;3.67;;;;;;;;;;5023161;28;20443;-76
2023/11/17 11:44:09;;;;;;;7.63;3.30;;;;;;;;;;5014353;28;20159;-77
2023/11/17 11:46:35;;;;;;;12.95;4.45;;;;;;;;;;5144766;22;20513;-76
2023/11/17 11:49:04;;;;;;;5.30;1.95;;;;;;;;;;5029381;28;20030;-77
2023/11/17 11:51:30;;;;;;;6.47;2.40;;;;;;;;;;5029289;28;20032;-77
2023/11/17 11:53:59;;;;;;;4.88;1.90;;;;;;;;;;5026357;28;20030;-77
2023/11/17 11:56:28;;;;;;;4.20;1.35;;;;;;;;;;5023801;28;20041;-77
2023/11/17 11:58:54;;;;;;;4.22;1.73;;;;;;;;;;5021621;28;20037;-77
2023/11/17 12:01:24;;;;;;;6.15;1.98;;;;;;;;;;5028336;28;20045;-77
2023/11/17 12:06:52;;;;;;;3.78;1.58;;;;;;;;;;5031491;28;20513;-77
2023/11/17 12:09:20;;;;;;;3.97;1.60;;;;;;;;;;5030097;28;20112;-76
2023/11/17 12:11:46;;;;;;;3.97;1.25;;;;;;;;;;5023082;28;20036;-77
2023/11/17 12:14:18;;;;;;;6.65;1.58;;;;;;;;;;5022185;28;20038;-77
2023/11/17 12:16:51;;;;;;;4.35;1.88;;;;;;;;;;5028534;28;20064;-76
2023/11/17 12:19:16;;;;;;;4.40;1.58;;;;;;;;;;5026132;28;20152;-77
2023/11/17 12:21:42;;;;;;;3.72;1.38;;;;;;;;;;5027130;28;20068;-77
2023/11/17 12:24:15;;;;;;;3.80;1.30;;;;;;;;;;5023121;28;20034;-77
2023/11/17 12:26:41;;;;;;;;;;;;;;;;;;5024464;28;20060;-77
2023/11/17 12:29:06;;;;;;;4.80;1.48;;;;;;;;;;5026603;28;19956;-77
2023/11/17 12:31:31;;;;;;;4.00;1.77;;;;;;;;;;5029137;28;20037;-77
2023/11/17 12:33:56;;;;;;;6.22;2.58;;;;;;;;;;5027617;28;20098;-77
2023/11/17 12:36:23;;;;;;;4.95;2.00;;;;;;;;;;5028995;28;20079;-77
2023/11/17 12:38:51;;;;;;;3.97;1.55;;;;;;;;;;5025824;28;20520;-77
2023/11/17 12:41:16;;;;;;;4.00;1.60;;;;;;;;;;5028609;28;20037;-77
2023/11/17 12:43:45;;;;;;;3.65;1.27;;;;;;;;;;5030189;28;20049;-77
2023/11/17 12:46:11;;;;;;;4.22;1.58;;;;;;;;;;5026402;28;20048;-78
2023/11/17 12:48:39;;;;;;;3.17;1.48;;;;;;;;;;5030009;28;20481;-77
2023/11/17 12:51:07;;;;;;;4.95;1.83;;;;;;;;;;5025487;28;20095;-77
2023/11/17 12:53:41;;;;;;;5.75;2.28;;;;;;;;;;5026836;28;20440;-77
2023/11/17 12:56:07;;;;;;;8.48;2.80;;;;;;;;;;5024115;28;20033;-76
2023/11/17 12:58:32;;;;;;;5.88;2.30;;;;;;;;;;5033104;28;20021;-76
2023/11/17 13:01:11;;;;;;;5.85;2.13;;;;;;;;;;5029951;28;20498;-77
2023/11/17 13:03:39;;;;;;;6.28;2.63;;;;;;;;;;5032400;28;20030;-76
2023/11/17 13:06:06;;;;;;;5.38;2.35;;;;;;;;;;5032465;28;20049;-77
2023/11/17 13:08:32;;;;;;;11.02;3.88;;;;;;;;;;5029390;28;20033;-77
2023/11/17 13:11:00;;;;;;;3.22;1.42;;;;;;;;;;5032076;28;20040;-76
2023/11/17 13:13:26;;;;;;;5.57;1.98;;;;;;;;;;5029307;28;20066;-77
2023/11/17 13:15:51;;;;;;;3.80;1.63;;;;;;;;;;5029372;28;20033;-76
2023/11/17 13:18:17;;;;;;;5.75;2.10;;;;;;;;;;5027531;28;20107;-76
2023/11/17 13:20:44;;;;;;;4.72;1.70;;;;;;;;;;5026269;28;20028;-76
2023/11/17 13:23:09;;;;;;;4.20;1.95;;;;;;;;;;5030090;28;20037;-76
2023/11/17 13:25:55;;;;;;;4.50;2.15;;;;;;;;;;5038346;28;20035;-76
2023/11/17 13:28:21;;;;;;;3.70;1.90;;;;;;;;;;5028598;28;20092;-76
2023/11/17 13:30:46;;;;;;;4.32;1.88;;;;;;;;;;5029004;28;20510;-77
2023/11/17 13:33:11;;;;;;;4.65;1.88;;;;;;;;;;5025717;28;20041;-76
2023/11/17 13:35:37;;;;;;;5.00;1.35;;;;;;;;;;5025682;28;20037;-77
2023/11/17 13:38:08;;;;;;;3.85;1.75;;;;;;;;;;5025899;28;20033;-76
2023/11/17 13:40:36;;;;;;;3.45;1.30;;;;;;;;;;5031699;28;20029;-77
2023/11/17 13:43:10;;;;;;;2.83;1.30;;;;;;;;;;5030321;28;20030;-76
2023/11/17 13:45:37;;;;;;;7.07;2.80;;;;;;;;;;5030379;28;20033;-76
2023/11/17 13:48:04;;;;;;;2.80;1.20;;;;;;;;;;5024312;28;20049;-77
2023/11/17 13:50:34;;;;;;;3.45;1.50;;;;;;;;;;5031778;28;20025;-77
2023/11/17 13:52:59;;;;;;;2.90;1.33;;;;;;;;;;5019814;28;20029;-75
2023/11/17 13:55:27;;;;;;;6.28;2.97;;;;;;;;;;5028490;28;20532;-76
2023/11/17 13:57:54;;;;;;;3.83;1.52;;;;;;;;;;5030862;28;20029;-77
2023/11/17 14:00:20;;;;;;;6.20;2.75;;;;;;;;;;5026896;28;20034;-76
2023/11/17 14:02:46;;;;;;;4.47;2.30;;;;;;;;;;5029953;28;20379;-76
2023/11/17 14:05:11;;;;;;;3.58;1.92;;;;;;;;;;5033108;28;20076;-76
2023/11/17 14:07:37;;;;;;;3.95;1.30;;;;;;;;;;5031607;28;20116;-76
2023/11/17 14:10:05;;;;;;;4.28;1.20;;;;;;;;;;5029196;28;20034;-76
2023/11/17 14:12:30;;;;;;;2.67;1.23;;;;;;;;;;5038033;28;20437;-76
2023/11/17 14:14:55;;;;;;;2.90;1.17;;;;;;;;;;5022894;28;20034;-77
2023/11/17 14:17:21;;;;;;;4.28;1.52;;;;;;;;;;5023499;28;20112;-77
2023/11/17 14:19:47;;;;;;;4.13;1.40;;;;;;;;;;5027061;28;20032;-77
2023/11/17 14:22:13;;;;;;;4.65;2.00;;;;;;;;;;5029758;28;20148;-77
2023/11/17 14:24:40;;;;;;;5.57;2.22;;;;;;;;;;5029940;28;20053;-77
2023/11/17 14:27:05;;;;;;;4.03;1.65;;;;;;;;;;5028759;28;20673;-77
2023/11/17 14:29:36;;;;;;;5.68;1.88;;;;;;;;;;5027089;28;20113;-77
2023/11/17 14:32:02;;;;;;;3.90;1.55;;;;;;;;;;5029368;28;20529;-77
2023/11/17 14:34:29;;;;;;;7.28;2.75;;;;;;;;;;5028515;28;20029;-77
2023/11/17 14:36:54;;;;;;;4.47;1.70;;;;;;;;;;5028213;28;20550;-77